createdAt,value
2022-10-20T00:01:52.272Z,75.73
2022-10-20T00:04:18.999Z,75.75
2022-10-20T00:06:45.699Z,75.67
2022-10-20T00:09:12.497Z,76.21
2022-10-20T00:11:39.321Z,76.42
2022-10-20T00:14:09.283Z,76.41
2022-10-20T00:16:38.144Z,76.88
2022-10-20T00:19:05.346Z,77.02
2022-10-20T00:21:32.037Z,76.95
2022-10-20T00:24:02.568Z,77.36
2022-10-20T00:26:32.376Z,77.15
2022-10-20T00:29:01.422Z,76.82
2022-10-20T00:31:28.111Z,77.32
2022-10-20T00:33:57.375Z,77.82
2022-10-20T00:36:24.222Z,78.02
2022-10-20T00:38:56.093Z,78.08
2022-10-20T00:41:22.782Z,78.15
2022-10-20T00:44:01.361Z,78.01
2022-10-20T00:46:46.250Z,77.58
2022-10-20T00:49:23.558Z,78.00
2022-10-20T00:51:52.728Z,78.39
2022-10-20T00:54:25.764Z,77.95
2022-10-20T00:56:55.517Z,77.26
2022-10-20T00:59:26.446Z,77.27
2022-10-20T01:01:54.803Z,76.84
2022-10-20T01:04:21.770Z,76.83
2022-10-20T01:06:48.619Z,76.73
2022-10-20T01:09:15.359Z,76.87
2022-10-20T01:12:02.214Z,77.25
2022-10-20T01:14:50.789Z,77.32
2022-10-20T01:17:48.165Z,77.00
2022-10-20T01:20:20.933Z,76.40
2022-10-20T01:22:59.814Z,76.49
2022-10-20T01:25:52.410Z,76.26
2022-10-20T01:28:38.238Z,76.41
2022-10-20T01:31:16.886Z,76.32
2022-10-20T01:34:06.606Z,77.29
2022-10-20T01:36:44.619Z,77.69
2022-10-20T01:39:19.351Z,77.72
2022-10-20T01:42:05.891Z,77.74
2022-10-20T01:44:34.719Z,77.80
2022-10-20T01:47:03.118Z,76.43
2022-10-20T01:49:29.868Z,76.12
2022-10-20T01:51:56.895Z,75.52
2022-10-20T01:54:32.635Z,75.71
2022-10-20T01:57:11.616Z,75.72
2022-10-20T01:59:51.623Z,76.19
2022-10-20T02:02:42.563Z,76.45
2022-10-20T02:05:30.686Z,76.85
2022-10-20T02:08:13.080Z,76.61
2022-10-20T02:10:48.107Z,76.96
2022-10-20T02:13:16.555Z,77.37
2022-10-20T02:15:47.118Z,77.83
2022-10-20T02:18:18.375Z,77.61
2022-10-20T02:20:49.111Z,77.88
2022-10-20T02:23:16.747Z,77.53
2022-10-20T02:25:43.556Z,77.72
2022-10-20T02:28:14.321Z,77.67
2022-10-20T02:30:41.886Z,77.50
2022-10-20T02:33:09.021Z,77.46
2022-10-20T02:35:35.761Z,77.79
2022-10-20T02:38:04.753Z,77.51
2022-10-20T02:40:33.839Z,77.59
2022-10-20T02:43:00.509Z,77.79
2022-10-20T02:45:27.102Z,77.69
2022-10-20T02:47:53.777Z,77.77
2022-10-20T02:50:20.620Z,77.82
2022-10-20T02:52:47.392Z,78.07
2022-10-20T02:57:48.641Z,78.22
2022-10-20T03:00:15.442Z,78.03
2022-10-20T03:02:42.192Z,78.13
2022-10-20T03:05:08.973Z,77.85
2022-10-20T03:07:35.897Z,77.48
2022-10-20T03:10:04.729Z,77.28
2022-10-20T03:12:32.321Z,77.22
2022-10-20T03:14:59.115Z,77.47
2022-10-20T03:17:25.934Z,77.92
2022-10-20T03:19:52.685Z,78.12
2022-10-20T03:22:19.335Z,79.04
2022-10-20T03:24:46.090Z,79.01
2022-10-20T03:27:14.945Z,78.79
2022-10-20T03:29:41.725Z,78.24
2022-10-20T03:32:08.406Z,78.23
2022-10-20T03:34:35.164Z,78.40
2022-10-20T03:37:02.240Z,78.34
2022-10-20T03:39:28.902Z,78.86
2022-10-20T03:41:57.508Z,78.67
2022-10-20T03:44:24.700Z,79.01
2022-10-20T03:46:51.468Z,79.57
2022-10-20T03:49:18.199Z,79.41
2022-10-20T03:51:44.911Z,79.53
2022-10-20T03:54:11.585Z,79.85
2022-10-20T03:56:38.220Z,80.17
2022-10-20T03:59:05.027Z,80.27
2022-10-20T04:01:34.424Z,80.01
2022-10-20T04:04:01.061Z,80.41
2022-10-20T04:06:27.752Z,80.70
2022-10-20T04:08:54.470Z,80.75
2022-10-20T04:11:21.329Z,80.44
2022-10-20T04:13:48.087Z,80.28
2022-10-20T04:16:14.938Z,80.30
2022-10-20T04:18:43.868Z,80.66
2022-10-20T04:21:10.788Z,80.88
2022-10-20T04:23:37.456Z,80.90
2022-10-20T04:26:11.872Z,80.60
2022-10-20T04:28:38.708Z,80.82
2022-10-20T04:31:06.449Z,80.61
2022-10-20T04:33:33.838Z,80.33
2022-10-20T04:36:06.106Z,80.12
2022-10-20T04:38:33.865Z,80.47
2022-10-20T04:41:04.381Z,80.59
2022-10-20T04:43:32.598Z,80.97
2022-10-20T04:46:07.236Z,80.78
2022-10-20T04:48:35.802Z,80.95
2022-10-20T04:51:09.317Z,80.69
2022-10-20T04:53:36.384Z,80.36
2022-10-20T04:56:05.319Z,79.88
2022-10-20T04:58:32.516Z,80.04
2022-10-20T05:01:10.046Z,79.90
2022-10-20T05:03:36.861Z,79.79
2022-10-20T05:06:21.241Z,79.58
2022-10-20T05:08:51.667Z,79.77
2022-10-20T05:11:20.869Z,79.44
2022-10-20T05:13:48.324Z,79.35
2022-10-20T05:16:17.566Z,79.27
2022-10-20T05:18:45.452Z,79.30
2022-10-20T05:21:17.660Z,79.43
2022-10-20T05:23:45.211Z,79.23
2022-10-20T05:26:17.561Z,78.83
2022-10-20T05:28:47.125Z,78.65
2022-10-20T05:31:14.930Z,78.85
2022-10-20T05:33:48.950Z,78.83
2022-10-20T05:36:19.456Z,78.59
2022-10-20T05:38:49.508Z,78.53
2022-10-20T05:41:19.410Z,78.42
2022-10-20T05:43:50.131Z,77.36
2022-10-20T05:46:18.030Z,76.70
2022-10-20T05:48:45.368Z,74.70
2022-10-20T05:51:15.403Z,73.73
2022-10-20T05:53:43.295Z,72.85
2022-10-20T05:56:13.058Z,72.11
2022-10-20T05:58:40.582Z,70.66
2022-10-20T06:01:09.604Z,69.24
2022-10-20T06:03:36.825Z,68.65
2022-10-20T06:06:04.668Z,67.15
2022-10-20T06:08:32.930Z,66.43
2022-10-20T06:11:07.963Z,65.14
2022-10-20T06:13:35.271Z,64.72
2022-10-20T06:16:06.961Z,65.14
2022-10-20T06:18:34.540Z,63.58
2022-10-20T06:21:06.311Z,63.74
2022-10-20T06:23:33.161Z,64.30
2022-10-20T06:26:08.668Z,64.56
2022-10-20T06:28:37.179Z,62.03
2022-10-20T06:31:15.782Z,62.24
2022-10-20T06:33:42.836Z,60.39
2022-10-20T06:36:10.237Z,58.21
2022-10-20T06:38:38.185Z,59.75
2022-10-20T06:41:06.160Z,59.29
2022-10-20T06:43:33.309Z,58.88
2022-10-20T06:46:02.261Z,58.07
2022-10-20T06:48:29.579Z,59.34
2022-10-20T06:50:57.940Z,59.56
2022-10-20T06:53:25.292Z,60.25
2022-10-20T06:55:59.399Z,59.83
2022-10-20T06:58:27.246Z,61.53
2022-10-20T07:01:03.577Z,60.86
2022-10-20T07:03:35.467Z,58.49
2022-10-20T07:06:03.623Z,57.61
2022-10-20T07:08:32.973Z,54.97
2022-10-20T07:11:01.816Z,56.82
2022-10-20T07:13:30.018Z,56.62
2022-10-20T07:15:58.096Z,56.67
2022-10-20T07:18:26.237Z,54.47
2022-10-20T07:20:56.276Z,55.70
2022-10-20T07:23:23.059Z,54.45
2022-10-20T07:25:49.648Z,55.79
2022-10-20T07:28:16.320Z,55.55
2022-10-20T07:30:42.936Z,55.50
2022-10-20T07:33:09.861Z,53.50
2022-10-20T07:35:36.832Z,51.66
2022-10-20T07:38:03.482Z,53.73
2022-10-20T07:40:30.922Z,55.54
2022-10-20T07:42:57.616Z,55.72
2022-10-20T07:45:24.263Z,56.58
2022-10-20T07:47:50.885Z,55.03
2022-10-20T07:50:17.834Z,53.50
2022-10-20T07:52:44.447Z,54.12
2022-10-20T07:55:18.000Z,53.95
2022-10-20T07:57:58.018Z,55.18
2022-10-20T08:00:24.624Z,53.97
2022-10-20T08:02:51.334Z,54.87
2022-10-20T08:05:18.101Z,56.59
2022-10-20T08:07:44.823Z,55.49
2022-10-20T08:10:11.465Z,54.50
2022-10-20T08:12:38.608Z,55.21
2022-10-20T08:15:08.597Z,56.27
2022-10-20T08:17:37.216Z,54.90
2022-10-20T08:22:45.792Z,56.67
2022-10-20T08:25:14.872Z,57.25
2022-10-20T08:27:42.039Z,55.15
2022-10-20T08:30:23.411Z,55.13
2022-10-20T08:32:53.949Z,56.69
2022-10-20T08:35:22.360Z,56.84
2022-10-20T08:37:49.452Z,55.39
2022-10-20T08:40:38.147Z,54.82
2022-10-20T08:43:04.786Z,53.63
2022-10-20T08:45:35.951Z,54.71
2022-10-20T08:48:04.805Z,52.86
2022-10-20T08:50:32.275Z,53.84
2022-10-20T08:53:00.738Z,54.95
2022-10-20T08:55:32.586Z,55.07
2022-10-20T08:58:12.421Z,55.31
2022-10-20T09:00:40.251Z,54.43
2022-10-20T09:03:31.033Z,55.29
2022-10-20T09:06:08.170Z,55.79
2022-10-20T09:08:37.572Z,53.95
2022-10-20T09:11:07.339Z,53.97
2022-10-20T09:13:34.286Z,54.40
2022-10-20T09:16:05.700Z,54.43
2022-10-20T09:18:34.202Z,53.50
2022-10-20T09:21:04.643Z,53.75
2022-10-20T09:23:43.389Z,54.64
2022-10-20T09:26:54.309Z,54.07
2022-10-20T09:29:22.262Z,52.73
2022-10-20T09:31:54.908Z,52.78
2022-10-20T09:34:29.309Z,52.62
2022-10-20T09:37:03.641Z,53.29
2022-10-20T09:39:39.232Z,52.05
2022-10-20T09:42:14.230Z,51.45
2022-10-20T09:45:04.931Z,51.08
2022-10-20T09:47:36.801Z,51.28
2022-10-20T09:54:06.610Z,49.88
2022-10-20T09:57:17.922Z,49.22
2022-10-20T10:00:42.577Z,49.75
2022-10-20T10:03:15.101Z,48.70
2022-10-20T10:13:26.620Z,46.31
2022-10-20T10:16:09.252Z,45.64
2022-10-20T10:18:36.830Z,45.38
2022-10-20T10:21:07.360Z,45.62
2022-10-20T10:23:36.678Z,46.26
2022-10-20T10:26:23.987Z,45.66
2022-10-20T10:28:58.272Z,44.44
2022-10-20T10:31:26.041Z,45.16
2022-10-20T10:34:24.590Z,45.71
2022-10-20T10:36:51.218Z,46.67
2022-10-20T10:39:17.903Z,47.58
2022-10-20T10:42:07.133Z,45.20
2022-10-20T10:44:39.309Z,46.47
2022-10-20T10:47:23.865Z,45.07
2022-10-20T10:50:25.978Z,45.55
2022-10-20T10:53:36.673Z,45.77
2022-10-20T10:56:25.205Z,46.02
2022-10-20T10:59:12.162Z,45.74
2022-10-20T11:02:07.481Z,44.86
2022-10-20T11:05:11.851Z,44.46
2022-10-20T11:08:01.465Z,44.24
2022-10-20T11:10:52.049Z,44.01
2022-10-20T11:13:28.217Z,44.28
2022-10-20T11:16:21.989Z,44.88
2022-10-20T11:19:31.882Z,45.68
2022-10-20T11:22:16.541Z,46.62
2022-10-20T11:24:55.657Z,44.86
2022-10-20T11:27:26.638Z,44.57
2022-10-20T11:29:57.654Z,45.09
2022-10-20T11:32:46.097Z,44.86
2022-10-20T11:35:29.559Z,45.17
2022-10-20T11:38:31.856Z,45.67
2022-10-20T11:41:09.387Z,45.01
2022-10-20T11:44:00.899Z,44.94
2022-10-20T11:46:35.013Z,45.51
2022-10-20T11:49:09.429Z,46.02
2022-10-20T11:52:15.728Z,45.71
2022-10-20T11:55:05.431Z,45.67
2022-10-20T11:57:41.242Z,46.12
2022-10-20T12:00:26.208Z,46.37
2022-10-20T12:03:01.796Z,45.41
2022-10-20T12:05:46.703Z,44.92
2022-10-20T12:08:36.003Z,46.25
2022-10-20T12:11:21.362Z,45.40
2022-10-20T12:13:58.006Z,45.49
2022-10-20T12:16:55.198Z,46.54
2022-10-20T12:19:26.191Z,45.53
2022-10-20T12:22:07.008Z,46.03
2022-10-20T12:24:33.801Z,45.57
2022-10-20T12:27:06.150Z,45.79
2022-10-20T12:29:32.650Z,45.68
2022-10-20T12:32:28.088Z,45.48
2022-10-20T12:34:58.920Z,45.64
2022-10-20T12:37:25.665Z,46.02
2022-10-20T12:39:55.399Z,45.79
2022-10-20T12:42:23.635Z,45.71
2022-10-20T12:44:50.826Z,45.94
2022-10-20T12:47:23.052Z,46.20
2022-10-20T12:50:01.483Z,45.89
2022-10-20T12:52:32.646Z,45.66
2022-10-20T12:55:08.779Z,46.03
2022-10-20T12:57:44.157Z,46.05
2022-10-20T13:00:20.042Z,46.15
2022-10-20T13:02:49.667Z,46.75
2022-10-20T13:05:16.250Z,47.16
2022-10-20T13:07:48.788Z,46.18
2022-10-20T13:10:27.959Z,46.89
2022-10-20T13:13:17.562Z,46.85
2022-10-20T13:15:44.205Z,47.00
2022-10-20T13:18:13.774Z,47.19
2022-10-20T13:21:06.760Z,47.35
2022-10-20T13:23:43.937Z,47.87
2022-10-20T13:26:25.504Z,47.82
2022-10-20T13:28:54.904Z,48.03
2022-10-20T13:31:51.786Z,48.27
2022-10-20T13:34:18.493Z,48.31
2022-10-20T13:36:48.080Z,47.90
2022-10-20T13:39:45.960Z,48.00
2022-10-20T13:42:36.536Z,48.36
2022-10-20T13:45:27.488Z,48.86
2022-10-20T13:48:12.987Z,48.77
2022-10-20T13:50:47.292Z,48.48
2022-10-20T13:53:26.346Z,48.84
2022-10-20T13:55:57.675Z,49.18
2022-10-20T13:58:25.969Z,48.93
2022-10-20T14:01:01.579Z,49.70
2022-10-20T14:03:31.241Z,49.32
2022-10-20T14:05:59.622Z,48.88
2022-10-20T14:08:26.661Z,49.27
2022-10-20T14:11:04.759Z,49.16
2022-10-20T14:13:34.552Z,49.26
2022-10-20T14:16:05.691Z,49.61
2022-10-20T14:18:35.976Z,49.52
2022-10-20T14:21:05.765Z,49.29
2022-10-20T14:23:37.051Z,49.56
2022-10-20T14:26:07.215Z,49.43
2022-10-20T14:28:35.657Z,49.30
2022-10-20T14:31:02.879Z,49.17
2022-10-20T14:33:30.939Z,49.51
2022-10-20T14:35:59.377Z,49.74
2022-10-20T14:38:33.235Z,49.92
2022-10-20T14:41:00.244Z,50.17
2022-10-20T14:43:42.695Z,50.78
2022-10-20T14:46:11.202Z,50.74
2022-10-20T14:48:43.414Z,50.40
2022-10-20T14:51:29.133Z,50.68
2022-10-20T14:54:20.806Z,50.97
2022-10-20T14:56:49.854Z,51.08
2022-10-20T14:59:26.897Z,50.56
2022-10-20T15:02:12.419Z,50.64
2022-10-20T15:04:40.973Z,50.96
2022-10-20T15:07:13.437Z,50.85
2022-10-20T15:09:42.095Z,51.38
2022-10-20T15:12:20.783Z,51.88
2022-10-20T15:14:51.447Z,52.36
2022-10-20T15:17:31.366Z,52.55
2022-10-20T15:19:58.348Z,52.68
2022-10-20T15:22:25.090Z,52.78
2022-10-20T15:24:51.809Z,53.04
2022-10-20T15:27:18.432Z,53.04
2022-10-20T15:29:51.959Z,53.24
2022-10-20T15:32:18.691Z,53.13
2022-10-20T15:34:45.330Z,53.11
2022-10-20T15:37:12.058Z,53.44
2022-10-20T15:39:38.780Z,53.77
2022-10-20T15:42:11.142Z,54.39
2022-10-20T15:44:38.265Z,54.74
2022-10-20T15:47:04.943Z,54.80
2022-10-20T15:49:31.714Z,55.19
2022-10-20T15:51:58.544Z,55.56
2022-10-20T15:54:25.323Z,55.98
2022-10-20T15:56:52.259Z,56.47
2022-10-20T15:59:19.295Z,56.85
2022-10-20T16:01:46.276Z,57.31
2022-10-20T16:04:31.575Z,57.16
2022-10-20T16:07:01.942Z,57.88
2022-10-20T16:09:30.544Z,58.43
2022-10-20T16:11:57.497Z,58.71
2022-10-20T16:14:24.186Z,59.16
2022-10-20T16:16:51.113Z,59.49
2022-10-20T16:19:18.331Z,59.85
2022-10-20T16:21:45.541Z,60.17
2022-10-20T16:24:12.596Z,60.60
2022-10-20T16:26:39.750Z,60.40
2022-10-20T16:29:09.568Z,60.41
2022-10-20T16:31:36.711Z,60.58
2022-10-20T16:34:03.750Z,60.66
2022-10-20T16:36:30.691Z,60.65
2022-10-20T16:38:57.953Z,60.99
2022-10-20T16:41:24.843Z,61.13
2022-10-20T16:43:51.531Z,61.34
2022-10-20T16:46:18.665Z,62.26
2022-10-20T16:48:50.178Z,62.38
2022-10-20T16:51:18.131Z,62.83
2022-10-20T16:53:45.310Z,62.90
2022-10-20T16:56:15.366Z,62.66
2022-10-20T16:58:45.110Z,62.66
2022-10-20T17:01:13.316Z,62.29
2022-10-20T17:03:45.512Z,62.58
2022-10-20T17:06:13.630Z,62.59
2022-10-20T17:08:40.781Z,62.67
2022-10-20T17:11:10.541Z,62.84
2022-10-20T17:13:38.564Z,63.11
2022-10-20T17:16:11.092Z,62.92
2022-10-20T17:18:38.191Z,62.96
2022-10-20T17:21:05.336Z,62.69
2022-10-20T17:23:40.220Z,62.91
2022-10-20T17:26:13.596Z,63.09
2022-10-20T17:28:40.272Z,63.21
2022-10-20T17:31:08.789Z,63.03
2022-10-20T17:33:37.071Z,62.87
2022-10-20T17:36:04.372Z,63.11
2022-10-20T17:38:31.522Z,62.58
2022-10-20T17:41:09.330Z,61.98
2022-10-20T17:43:36.722Z,61.67
2022-10-20T17:46:13.420Z,62.16
2022-10-20T17:48:40.210Z,62.06
2022-10-20T17:51:08.271Z,61.82
2022-10-20T17:53:36.649Z,61.48
2022-10-20T17:56:06.151Z,61.56
2022-10-20T17:58:33.854Z,61.42
2022-10-20T18:01:09.902Z,61.43
2022-10-20T18:03:36.853Z,61.39
2022-10-20T18:06:15.237Z,61.60
2022-10-20T18:08:42.420Z,61.62
2022-10-20T18:11:20.308Z,61.59
2022-10-20T18:13:47.258Z,61.41
2022-10-20T18:16:16.669Z,61.05
2022-10-20T18:18:43.999Z,60.63
2022-10-20T18:21:12.718Z,60.85
2022-10-20T18:23:41.378Z,60.66
2022-10-20T18:26:11.692Z,60.66
2022-10-20T18:28:44.448Z,60.00
2022-10-20T18:31:23.097Z,59.91
2022-10-20T18:33:54.217Z,59.69
2022-10-20T18:36:20.915Z,59.85
2022-10-20T18:38:48.150Z,59.52
2022-10-20T18:41:26.062Z,59.94
2022-10-20T18:44:00.576Z,59.62
2022-10-20T18:46:28.955Z,59.49
2022-10-20T18:48:56.615Z,59.52
2022-10-20T18:51:23.523Z,59.72
2022-10-20T18:53:55.777Z,59.60
2022-10-20T18:56:24.248Z,59.87
2022-10-20T18:58:55.874Z,60.10
2022-10-20T19:01:25.851Z,60.16
2022-10-20T19:03:55.041Z,60.55
2022-10-20T19:06:24.438Z,60.10
2022-10-20T19:09:00.230Z,60.28
2022-10-20T19:11:29.316Z,60.29
2022-10-20T19:13:56.951Z,60.38
2022-10-20T19:16:27.184Z,60.37
2022-10-20T19:18:56.505Z,60.76
2022-10-20T19:21:24.718Z,60.42
2022-10-20T19:23:53.866Z,60.47
2022-10-20T19:26:21.585Z,60.73
2022-10-20T19:28:56.078Z,60.97
2022-10-20T19:31:36.182Z,60.95
2022-10-20T19:34:16.431Z,60.99
2022-10-20T19:36:46.656Z,61.02
2022-10-20T19:39:16.487Z,61.63
2022-10-20T19:41:43.814Z,61.95
2022-10-20T19:44:15.562Z,62.11
2022-10-20T19:46:43.818Z,62.75
2022-10-20T19:49:10.635Z,63.14
2022-10-20T19:51:37.471Z,63.45
2022-10-20T19:54:04.670Z,63.73
2022-10-20T19:56:32.074Z,63.90
2022-10-20T19:59:01.024Z,64.32
2022-10-20T20:01:28.181Z,64.66
2022-10-20T20:03:54.874Z,65.03
2022-10-20T20:06:21.703Z,64.80
2022-10-20T20:08:52.668Z,64.69
2022-10-20T20:11:30.943Z,64.77
2022-10-20T20:14:03.915Z,64.99
2022-10-20T20:16:30.965Z,64.92
2022-10-20T20:18:57.912Z,64.75
2022-10-20T20:21:25.359Z,64.62
2022-10-20T20:24:01.001Z,63.77
2022-10-20T20:26:29.684Z,63.46
2022-10-20T20:28:56.933Z,63.11
2022-10-20T20:31:24.176Z,62.42
2022-10-20T20:33:50.952Z,61.71
2022-10-20T20:36:18.651Z,61.64
2022-10-20T20:38:45.682Z,61.29
2022-10-20T20:41:17.797Z,61.26
2022-10-20T20:43:47.923Z,60.91
2022-10-20T20:46:16.942Z,60.64
2022-10-20T20:48:44.422Z,61.11
2022-10-20T20:51:12.203Z,60.73
2022-10-20T20:53:40.063Z,60.60
2022-10-20T20:56:09.527Z,60.40
2022-10-20T20:58:36.576Z,60.54
2022-10-20T21:01:10.564Z,60.11
2022-10-20T21:03:40.511Z,60.33
2022-10-20T21:06:10.303Z,60.18
2022-10-20T21:08:39.097Z,60.22
2022-10-20T21:11:07.400Z,59.69
2022-10-20T21:13:35.805Z,59.73
2022-10-20T21:16:16.148Z,59.78
2022-10-20T21:18:46.464Z,59.96
2022-10-20T21:21:28.218Z,60.06
2022-10-20T21:23:56.554Z,59.88
2022-10-20T21:26:23.950Z,60.21
2022-10-20T21:28:51.191Z,60.19
2022-10-20T21:31:19.938Z,59.67
2022-10-20T21:33:50.598Z,59.65
2022-10-20T21:36:18.681Z,59.35
2022-10-20T21:38:46.157Z,59.34
2022-10-20T21:41:16.180Z,59.17
2022-10-20T21:43:45.178Z,58.98
2022-10-20T21:46:19.520Z,58.88
2022-10-20T21:48:48.689Z,59.02
2022-10-20T21:51:21.922Z,59.05
2022-10-20T21:53:49.077Z,58.99
2022-10-20T21:56:16.278Z,58.58
2022-10-20T21:58:43.063Z,59.25
2022-10-20T22:01:13.776Z,59.41
2022-10-20T22:03:41.160Z,59.03
2022-10-20T22:06:09.803Z,59.33
2022-10-20T22:08:42.210Z,59.35
2022-10-20T22:11:12.978Z,59.75
2022-10-20T22:13:39.766Z,59.76
2022-10-20T22:16:08.370Z,59.72
2022-10-20T22:18:35.464Z,59.78
2022-10-20T22:21:11.123Z,59.99
2022-10-20T22:23:40.608Z,59.70
2022-10-20T22:26:07.561Z,59.87
2022-10-20T22:28:34.321Z,59.75
2022-10-20T22:33:33.378Z,60.45
2022-10-20T22:36:00.139Z,59.86
2022-10-20T22:38:26.776Z,59.81
2022-10-20T22:40:58.700Z,59.51
2022-10-20T22:43:26.672Z,59.00
2022-10-20T22:45:53.710Z,59.05
2022-10-20T22:48:20.902Z,58.57
2022-10-20T22:50:48.179Z,58.28
2022-10-20T22:53:15.316Z,58.46
2022-10-20T22:55:42.318Z,58.11
2022-10-20T22:58:09.064Z,57.88
2022-10-20T23:00:35.853Z,58.25
2022-10-20T23:03:02.530Z,58.45
2022-10-20T23:05:29.247Z,58.51
2022-10-20T23:07:55.919Z,58.49
2022-10-20T23:10:22.954Z,58.36
2022-10-20T23:12:49.870Z,58.24
2022-10-20T23:15:16.787Z,57.74
2022-10-20T23:17:43.519Z,57.91
2022-10-20T23:20:10.858Z,58.27
2022-10-20T23:22:37.570Z,58.38
2022-10-20T23:25:04.740Z,58.59
2022-10-20T23:27:35.776Z,58.28
2022-10-20T23:30:02.862Z,58.43
2022-10-20T23:32:29.881Z,58.47
2022-10-20T23:34:56.639Z,58.86
2022-10-20T23:37:25.673Z,58.87
2022-10-20T23:39:52.332Z,58.81
2022-10-20T23:42:18.953Z,59.02
2022-10-20T23:44:45.671Z,58.52
2022-10-20T23:47:12.324Z,59.07
2022-10-20T23:49:38.966Z,58.96
2022-10-20T23:52:06.078Z,58.57
2022-10-20T23:54:34.165Z,58.96
2022-10-20T23:57:02.504Z,58.92
2022-10-20T23:59:29.204Z,58.80
